Flight Track Log - Related Links

Times and Time Zones

All times are in EDT time to prevent confusion due to time zone crossing. See the LNI33 flight status page for this flight to view local times or setup timezone preferences in your user account.

Time Position Orientation Groundspeed Altitude Reporting Facility
EDT Latitude Longitude Course Direction KTS MPH feet Rate Location/Type
Sun 07:05:47 AM -7.8971 113.9362 294° West 482 555 33,800  Level FlightAware ADS-B
Sun 07:06:41 AM -7.8530 113.8374 294° West 481 554 34,800 1,032 Climbing FlightAware ADS-B
Sun 07:07:20 AM -7.8021 113.7235 294° West 479 551 35,400 1,043 Climbing FlightAware ADS-B
Sun 07:07:50 AM -7.7769 113.6673 294° West 474 545 36,000 414 Climbing FlightAware ADS-B
Sun 07:08:47 AM -7.7238 113.5487 294° West 468 539 36,000  Level FlightAware ADS-B
Sun 07:09:20 AM -7.6968 113.4887 294° West 469 540 36,000  Level FlightAware ADS-B
Sun 07:09:50 AM -7.6679 113.4244 294° West 469 540 36,000  Level FlightAware ADS-B
Sun 07:10:23 AM -7.6384 113.3588 294° West 469 540 36,000  Level FlightAware ADS-B (RPLS / SGL)
Sun 07:10:54 AM -7.6112 113.2978 294° West 469 540 36,000  Level FlightAware ADS-B (RPLS / SGL)
Sun 07:11:27 AM -7.5810 113.2309 294° West 471 542 36,000  Level FlightAware ADS-B (RPLS / SGL)
Sun 07:12:04 AM -7.5676 113.2009 294° West 473 544 36,000  Level FlightAware ADS-B
Sun 07:12:49 AM -7.5091 113.0707 294° West 476 548 36,000  Level FlightAware ADS-B
Sun 07:13:48 AM -7.4700 112.9839 294° West 478 550 36,000  Level FlightAware ADS-B (RPLS / SGL)
Sun 07:14:20 AM -7.4326 112.9010 294° West 477 549 36,000  Level FlightAware ADS-B
Sun 07:14:50 AM -7.3984 112.8255 294° West 477 549 36,000  Level FlightAware ADS-B
Sun 07:15:20 AM -7.3692 112.7609 294° West 476 548 36,000  Level FlightAware ADS-B
Sun 07:15:50 AM -7.3573 112.7342 294° West 476 548 36,000  Level FlightAware ADS-B
Sun 07:16:25 AM -7.3106 112.6295 294° West 476 548 36,000  Level FlightAware ADS-B (RPLS / SGL)
Sun 07:17:19 AM -7.3106 112.6295 294° West 477 549 36,000  Level FlightAware ADS-B (RPLS / SGL)
Sun 07:18:48 AM -7.2455 112.4839 294° West 477 549 36,000  Level FlightAware ADS-B
Sun 07:20:13 AM -7.2455 112.4839 294° West 475 547 36,000  Level FlightAware ADS-B
Sun 07:22:00 AM -7.1919 112.1960 281° West  Level Estimated
Sun 07:23:00 AM -7.1618 112.0346 281° West  Level Estimated
Sun 07:24:00 AM -7.1317 111.8733 281° West  Level Estimated
Sun 07:25:00 AM -7.1015 111.7119 281° West  Level Estimated
Sun 07:26:00 AM -7.0712 111.5506 281° West  Level Estimated
Sun 07:27:00 AM -7.0409 111.3893 281° West  Level Estimated
Sun 07:28:00 AM -7.0105 111.2280 281° West  Level Estimated
Sun 07:29:00 AM -6.9800 111.0667 281° West  Level Estimated
Sun 07:30:00 AM -6.9495 110.9055 281° West  Level Estimated
Sun 07:31:00 AM -6.9190 110.7443 281° West  Level Estimated
Sun 07:32:00 AM -6.8884 110.5831 281° West  Level Estimated
Sun 07:33:00 AM -6.8577 110.4219 281° West  Level Estimated
Sun 07:34:00 AM -6.8270 110.2607 281° West  Level Estimated
Sun 07:35:00 AM -6.7963 110.0996 281° West  Level Estimated
Sun 07:36:00 AM -6.7655 109.9385 281° West  Level Estimated
Sun 07:37:00 AM -6.7346 109.7774 281° West  Level Estimated
Sun 07:38:00 AM -6.7037 109.6163 281° West  Level Estimated
Sun 07:39:00 AM -6.6727 109.4552 281° West  Level Estimated
Sun 07:40:00 AM -6.6417 109.2942 281° West  Level Estimated
Sun 07:41:00 AM -6.6106 109.1332 281° West  Level Estimated
Sun 07:42:00 AM -6.5795 108.9722 281° West  Level Estimated
Sun 07:43:00 AM -6.5483 108.8112 281° West  Level Estimated
Sun 07:44:00 AM -6.5170 108.6503 281° West  Level Estimated
Sun 07:45:00 AM -6.4858 108.4893 281° West  Level Estimated
Sun 07:46:00 AM -6.4544 108.3284 281° West  Level Estimated
Sun 07:47:00 AM -6.4230 108.1675 281° West  Level Estimated
Sun 07:48:00 AM -6.3916 108.0066 281° West  Level Estimated
Sun 07:49:00 AM -6.3601 107.8458 281° West  Level Estimated
Sun 07:50:00 AM -6.3286 107.6849 281° West  Level Estimated
Sun 07:51:00 AM -6.2970 107.5241 281° West  Level Estimated
Sun 07:52:00 AM -6.2654 107.3633 281° West  Level Estimated
Sun 07:53:00 AM -6.2337 107.2026 281° West  Level Estimated
Sun 07:54:00 AM -6.2020 107.0418 281° West  Level Estimated
Sun 07:55:00 AM -6.1702 106.8811 281° West  Level Estimated
Sun 07:56:00 AM -6.1383 106.7203 281° West  Level Estimated
Sun 07:57:00 AM -6.1256 106.6559 281° West  Level Estimated
Sun 07:58:00 AM -6.1256 106.6559 North  Level Estimated
Sun 07:59:00 AM -6.1256 106.6559 North  Level Estimated
Sun 08:00:00 AM -6.1256 106.6559 North  Level Estimated
Sun 08:01:00 AM -6.1256 106.6559 North  Level Estimated
Sun 08:02:00 AM -6.1256 106.6559 North  Level Estimated
Sun 08:03:00 AM -6.1256 106.6559 North  Level Estimated
Sun 08:04:00 AM -6.1256 106.6559 North  Level Estimated
Sun 08:05:00 AM -6.1256 106.6559 North  Level Estimated
Sun 08:06:00 AM -6.1256 106.6559 North  Level Estimated
Sun 08:07:00 AM -6.1256 106.6559 North  Level Estimated
Sun 08:08:00 AM -6.1256 106.6559 North  Level Estimated
Sun 08:09:00 AM -6.1256 106.6559 North  Level Estimated
Sun 08:10:00 AM -6.1256 106.6559 North  Level Estimated
Sun 08:11:00 AM -6.1256 106.6559 North  Level Estimated
Sun 08:12:00 AM -6.1256 106.6559 North  Level Estimated
Sun 08:13:00 AM -6.1256 106.6559 North  Level Estimated
Sun 08:14:00 AM -6.1256 106.6559 North  Level Estimated
Sun 08:15:00 AM -6.1256 106.6559 North  Level Estimated
Sun 08:16:00 AM -6.1256 106.6559 North  Level Estimated

Login

Don't have an account? Register now (free) for customized features, flight alerts, and more!